Time;durP1;ratioP1;P1;durP2;ratioP2;P2;SDS_P1;SDS_P2;PMS_P1;PMS_P2;Temp;Humidity;BMP_temperature;BMP_pressure;BME280_temperature;BME280_humidity;BME280_pressure;Samples;Min_cycle;Max_cycle;Signal;HPM_P1;HPM_P2
2021/08/11 00:01:30;;;;;;;9.28;5.70;;;;;;;16.14;84.01;100207.25;1667884;86;21061;-89
2021/08/11 00:03:56;;;;;;;8.75;4.58;;;;;;;16.15;84.04;100207.59;1648880;87;21076;-89
2021/08/11 00:06:22;;;;;;;7.42;4.50;;;;;;;16.16;84.26;100211.45;1668004;86;21002;-89
2021/08/11 00:08:48;;;;;;;8.80;4.97;;;;;;;16.17;84.40;100210.95;1648834;87;20993;-89
2021/08/11 00:11:14;;;;;;;7.05;4.80;;;;;;;16.18;84.47;100218.77;1621170;88;21615;-88
2021/08/11 00:13:40;;;;;;;10.20;5.20;;;;;;;16.21;84.91;100222.97;1667946;86;21005;-88
2021/08/11 00:16:07;;;;;;;6.75;4.28;;;;;;;16.24;84.74;100225.33;1648943;87;21036;-88
2021/08/11 00:18:33;;;;;;;6.03;4.10;;;;;;;16.26;84.96;100227.36;1667912;86;21001;-88
2021/08/11 00:20:59;;;;;;;6.30;4.78;;;;;;;16.29;85.09;100229.72;1649004;87;21023;-89
2021/08/11 00:23:25;;;;;;;7.45;5.65;;;;;;;16.34;85.43;100239.41;1620946;88;21108;-89
2021/08/11 00:25:54;;;;;;;8.73;5.17;;;;;;;16.37;85.20;100243.61;1667939;86;21531;-89
2021/08/11 00:28:25;;;;;;;8.20;5.78;;;;;;;16.39;85.38;100242.97;1621000;88;21531;-89
2021/08/11 00:30:53;;;;;;;12.45;6.83;;;;;;;16.42;85.45;100244.00;1668009;86;21041;-89
2021/08/11 00:33:20;;;;;;;8.38;4.28;;;;;;;16.44;85.62;100251.83;1620964;88;21040;-89
2021/08/11 00:35:47;;;;;;;6.87;4.58;;;;;;;16.47;85.58;100258.19;1667942;86;21097;-88
2021/08/11 00:38:13;;;;;;;7.17;4.72;;;;;;;16.51;85.39;100259.55;1648787;87;21064;-88
2021/08/11 00:40:39;;;;;;;6.78;4.45;;;;;;;16.54;85.56;100267.24;1649021;87;21091;-89
2021/08/11 00:43:11;;;;;;;8.03;4.62;;;;;;;16.57;85.87;100271.77;1667794;86;20981;-88
2021/08/11 00:45:38;;;;;;;8.28;4.75;;;;;;;16.60;85.95;100261.31;1648931;87;21048;-88
2021/08/11 00:48:06;;;;;;;6.15;4.67;;;;;;;16.62;86.28;100259.34;1667813;86;21476;-89
2021/08/11 00:50:34;;;;;;;8.18;5.62;;;;;;;16.62;86.40;100244.70;1651723;87;21048;-87
2021/08/11 00:53:03;;;;;;;8.88;4.78;;;;;;;16.63;86.30;100255.19;1665136;86;20998;-87
2021/08/11 00:55:32;;;;;;;8.98;4.40;;;;;;;16.66;86.67;100251.38;1665031;85;21026;-87
2021/08/11 00:57:59;;;;;;;6.17;4.53;;;;;;;16.65;86.54;100247.89;1665058;85;20970;-87
2021/08/11 01:00:25;;;;;;;5.05;3.98;;;;;;;16.68;86.60;100241.89;1665199;85;21054;-87
2021/08/11 01:02:52;;;;;;;8.25;5.03;;;;;;;16.68;86.75;100243.23;1664996;85;21505;-87
2021/08/11 01:05:19;;;;;;;6.17;4.20;;;;;;;16.69;86.57;100242.26;1665183;85;21014;-87
2021/08/11 01:07:49;;;;;;;7.22;4.55;;;;;;;16.70;86.76;100239.92;1664947;85;21061;-87
2021/08/11 01:10:15;;;;;;;8.03;4.62;;;;;;;16.72;86.79;100236.63;1665217;85;21523;-87
2021/08/11 01:12:42;;;;;;;9.18;4.80;;;;;;;16.70;86.56;100225.27;1664954;86;21006;-87
2021/08/11 01:15:09;;;;;;;7.42;4.50;;;;;;;16.71;86.71;100225.61;1665105;85;21048;-88
2021/08/11 01:17:35;;;;;;;6.35;4.60;;;;;;;16.70;86.78;100224.77;1664872;86;20970;-87
2021/08/11 01:20:05;;;;;;;6.83;5.00;;;;;;;16.69;86.64;100228.44;1665283;86;21014;-88
2021/08/11 01:22:44;;;;;;;7.87;4.97;;;;;;;16.67;86.66;100221.08;1664543;86;21165;-87
2021/08/11 01:25:22;;;;;;;7.20;4.30;;;;;;;16.65;86.77;100215.92;1640018;86;21512;-88
2021/08/11 01:28:16;;;;;;;6.47;4.55;;;;;;;16.64;86.47;100216.05;1665026;86;21040;-88
2021/08/11 01:30:54;;;;;;;7.70;4.65;;;;;;;16.64;86.46;100222.72;1665042;86;21555;-89
2021/08/11 01:33:45;;;;;;;6.67;4.17;;;;;;;16.64;86.73;100225.38;1664998;86;21022;-87
2021/08/11 01:36:25;;;;;;;8.90;5.05;;;;;;;16.63;86.66;100218.39;1664737;86;21053;-88
2021/08/11 01:39:08;;;;;;;6.37;4.17;;;;;;;16.61;86.60;100220.36;1663276;86;21017;-87
2021/08/11 01:41:38;;;;;;;10.18;5.17;;;;;;;16.62;86.84;100220.72;1665074;85;20982;-87
2021/08/11 01:44:07;;;;;;;7.65;5.10;;;;;;;16.61;86.91;100219.02;1665055;85;21483;-87
2021/08/11 01:46:38;;;;;;;6.20;4.60;;;;;;;16.60;87.01;100215.53;1664897;86;21515;-88
2021/08/11 01:49:08;;;;;;;6.80;5.12;;;;;;;16.59;87.05;100221.86;1665086;85;20993;-88
2021/08/11 01:51:37;;;;;;;6.12;4.37;;;;;;;16.60;86.90;100217.36;1640345;86;21488;-87
2021/08/11 01:54:06;;;;;;;7.35;5.70;;;;;;;16.59;86.67;100211.70;1665117;85;21467;-88
2021/08/11 01:56:34;;;;;;;6.10;4.60;;;;;;;16.59;86.62;100211.20;1665047;85;21488;-88
2021/08/11 01:59:02;;;;;;;7.58;4.97;;;;;;;16.59;86.43;100217.86;1648820;87;21025;-87
2021/08/11 02:01:28;;;;;;;7.95;5.70;;;;;;;16.58;86.62;100221.52;1667921;86;21440;-88
2021/08/11 02:03:54;;;;;;;8.00;5.10;;;;;;;16.57;86.61;100220.33;1651659;87;20986;-88
2021/08/11 02:06:21;;;;;;;8.53;5.10;;;;;;;16.54;86.62;100213.97;1621001;88;21028;-87
2021/08/11 02:08:48;;;;;;;7.58;5.12;;;;;;;16.52;86.62;100231.45;1667769;86;21547;-88
2021/08/11 02:11:14;;;;;;;7.62;3.87;;;;;;;16.52;86.77;100227.92;1651700;87;21033;-87
2021/08/11 02:13:41;;;;;;;6.95;4.55;;;;;;;16.50;86.95;100225.92;1620861;88;20997;-87
2021/08/11 02:16:07;;;;;;;7.30;4.62;;;;;;;16.49;86.86;100225.09;1668068;86;21014;-88
2021/08/11 02:18:33;;;;;;;5.83;4.58;;;;;;;16.47;86.90;100223.56;1648631;87;21100;-88
2021/08/11 02:20:59;;;;;;;7.85;4.47;;;;;;;16.42;86.94;100222.70;1619755;88;21022;-88
2021/08/11 02:23:25;;;;;;;8.00;4.40;;;;;;;16.41;87.01;100228.49;1664947;86;21012;-88
2021/08/11 02:26:02;;;;;;;6.53;4.33;;;;;;;16.40;86.98;100225.50;1665153;85;20990;-88
2021/08/11 02:28:46;;;;;;;6.35;4.75;;;;;;;16.39;87.32;100227.00;1664854;86;20967;-87
2021/08/11 02:31:29;;;;;;;8.03;4.75;;;;;;;16.36;87.20;100227.30;1665049;85;21029;-87
2021/08/11 02:34:07;;;;;;;;;;;;;;;16.34;87.40;100221.27;1642608;86;20989;-87
2021/08/11 02:36:41;;;;;;;8.30;4.62;;;;;;;16.31;87.53;100228.23;1665185;85;20137;-88
2021/08/11 02:39:12;;;;;;;7.78;4.60;;;;;;;16.27;87.41;100222.37;1648146;87;21096;-89
2021/08/11 02:41:46;;;;;;;5.08;3.87;;;;;;;16.25;87.31;100227.49;1667701;86;21041;-89
2021/08/11 02:44:20;;;;;;;5.90;4.55;;;;;;;16.22;87.29;100230.45;1648843;87;21545;-89
2021/08/11 02:46:49;;;;;;;6.17;4.08;;;;;;;16.17;87.06;100233.58;1667599;86;21607;-89
2021/08/11 02:49:26;;;;;;;10.32;4.08;;;;;;;16.14;87.00;100230.71;1651638;87;21029;-88
2021/08/11 02:51:52;;;;;;;8.93;4.83;;;;;;;16.10;86.96;100229.84;1620010;87;21622;-87
2021/08/11 02:54:21;;;;;;;9.20;4.58;;;;;;;16.07;87.06;100231.47;1644632;86;20985;-87
2021/08/11 02:56:48;;;;;;;6.95;4.72;;;;;;;16.03;86.94;100232.27;1651562;87;21085;-87
2021/08/11 02:59:15;;;;;;;7.45;4.67;;;;;;;16.00;86.95;100228.56;1621050;88;21071;-87
2021/08/11 03:01:42;;;;;;;4.95;4.25;;;;;;;16.00;87.03;100226.41;1667769;86;21026;-87
2021/08/11 03:04:09;;;;;;;11.03;4.80;;;;;;;15.97;87.13;100228.86;1651608;87;21519;-86
2021/08/11 03:06:35;;;;;;;8.05;4.55;;;;;;;15.94;87.40;100226.00;1664951;86;20986;-87
2021/08/11 03:09:02;;;;;;;6.35;4.70;;;;;;;15.92;87.41;100229.28;1665075;86;20974;-87
2021/08/11 03:11:29;;;;;;;7.65;5.62;;;;;;;15.90;87.39;100231.28;1664982;85;21037;-87
2021/08/11 03:13:56;;;;;;;8.00;4.90;;;;;;;15.88;87.39;100230.58;1664977;85;21003;-87
2021/08/11 03:16:22;;;;;;;7.65;5.30;;;;;;;15.89;87.48;100232.73;1665027;85;21033;-87
2021/08/11 03:18:49;;;;;;;6.33;4.47;;;;;;;15.89;87.52;100238.92;1648824;87;21018;-87
2021/08/11 03:21:15;;;;;;;6.28;4.35;;;;;;;15.86;87.32;100240.55;1621225;88;21033;-87
2021/08/11 03:23:42;;;;;;;7.67;4.58;;;;;;;15.85;87.26;100246.83;1667893;86;21072;-87
2021/08/11 03:26:07;;;;;;;8.10;5.00;;;;;;;15.85;87.26;100250.83;1648946;87;21044;-87
2021/08/11 03:28:33;;;;;;;9.00;5.10;;;;;;;15.84;87.30;100247.00;1668116;86;21013;-87
2021/08/11 03:30:59;;;;;;;6.72;4.78;;;;;;;15.81;87.42;100249.45;1621168;88;21057;-87
2021/08/11 03:33:25;;;;;;;6.10;4.12;;;;;;;15.79;87.20;100247.41;1668028;86;21021;-87
2021/08/11 03:35:52;;;;;;;6.28;4.67;;;;;;;15.78;87.16;100251.56;1648906;87;21052;-87
2021/08/11 03:38:18;;;;;;;6.22;4.53;;;;;;;15.74;86.95;100248.37;1619671;88;21057;-87
2021/08/11 03:40:44;;;;;;;6.50;4.47;;;;;;;15.71;87.05;100251.31;1665185;86;21001;-87
2021/08/11 03:43:10;;;;;;;7.92;5.25;;;;;;;15.68;87.03;100250.28;1664989;86;22229;-87
2021/08/11 03:45:36;;;;;;;9.03;4.75;;;;;;;15.68;87.12;100252.94;1665261;85;20986;-87
2021/08/11 03:48:02;;;;;;;7.00;4.75;;;;;;;15.64;86.97;100252.36;1664917;86;21022;-86
2021/08/11 03:50:28;;;;;;;9.10;5.25;;;;;;;15.64;87.16;100250.20;1665010;86;21088;-87
2021/08/11 03:52:55;;;;;;;8.48;4.70;;;;;;;15.61;87.23;100248.66;1664857;85;21515;-87
2021/08/11 03:55:21;;;;;;;8.35;4.33;;;;;;;15.61;87.39;100251.32;1665159;86;21022;-87
2021/08/11 03:57:47;;;;;;;10.58;5.30;;;;;;;15.60;87.34;100252.81;1664888;86;21017;-87
2021/08/11 04:00:13;;;;;;;8.10;5.05;;;;;;;15.59;87.36;100247.13;1665108;85;21045;-87
2021/08/11 04:02:39;;;;;;;7.78;4.78;;;;;;;15.58;87.65;100243.63;1664940;85;21487;-87
2021/08/11 04:05:07;;;;;;;15.32;5.97;;;;;;;15.58;87.77;100244.96;1648981;87;21070;-87
2021/08/11 04:07:37;;;;;;;8.33;5.45;;;;;;;15.56;88.12;100242.09;1667756;86;21030;-87
2021/08/11 04:10:09;;;;;;;6.53;5.35;;;;;;;15.54;88.41;100254.22;1648911;87;21088;-87
2021/08/11 04:12:35;;;;;;;8.38;4.85;;;;;;;15.53;88.44;100253.02;1667945;86;21487;-87
2021/08/11 04:15:01;;;;;;;8.50;4.72;;;;;;;15.52;88.69;100256.67;1651916;87;21038;-87
2021/08/11 04:17:27;;;;;;;6.80;4.85;;;;;;;15.53;89.01;100267.18;1620938;88;21036;-86
2021/08/11 04:19:53;;;;;;;6.83;4.22;;;;;;;15.54;88.73;100275.99;1644477;86;21061;-87
2021/08/11 04:22:20;;;;;;;8.05;5.28;;;;;;;15.54;88.90;100269.34;1621053;88;21036;-87
2021/08/11 04:24:46;;;;;;;7.37;4.58;;;;;;;15.56;88.98;100274.01;1668024;86;21072;-87
2021/08/11 04:27:12;;;;;;;6.65;4.15;;;;;;;15.55;88.93;100275.00;1651645;87;21512;-87
2021/08/11 04:29:38;;;;;;;9.55;4.80;;;;;;;15.53;88.79;100271.63;1621200;88;21045;-87
2021/08/11 04:32:04;;;;;;;8.35;4.42;;;;;;;15.54;89.17;100278.66;1667912;86;21494;-86
2021/08/11 04:34:30;;;;;;;5.72;4.25;;;;;;;15.54;88.99;100275.99;1621127;88;21017;-86
2021/08/11 04:36:56;;;;;;;7.87;5.25;;;;;;;15.55;89.33;100281.65;1667814;86;21026;-86
2021/08/11 04:39:23;;;;;;;8.25;4.50;;;;;;;15.57;89.72;100278.36;1651810;87;21041;-87
2021/08/11 04:41:49;;;;;;;8.10;4.53;;;;;;;15.60;89.62;100279.41;1620943;88;21099;-87
2021/08/11 04:44:15;;;;;;;7.37;4.85;;;;;;;15.64;89.97;100280.29;1668116;86;20974;-86
2021/08/11 04:46:41;;;;;;;8.00;4.55;;;;;;;15.68;90.24;100277.70;1622368;87;21024;-87
2021/08/11 04:49:08;;;;;;;6.47;4.05;;;;;;;15.73;90.20;100283.94;1667729;85;21065;-86
2021/08/11 04:51:34;;;;;;;7.47;4.30;;;;;;;15.78;90.29;100286.16;1620975;88;21566;-88
2021/08/11 04:54:01;;;;;;;5.97;3.72;;;;;;;15.82;90.15;100285.70;1668058;86;20962;-86
2021/08/11 04:56:27;;;;;;;10.00;4.53;;;;;;;15.85;90.25;100282.75;1651780;87;21026;-85
2021/08/11 04:58:53;;;;;;;6.55;4.20;;;;;;;15.90;90.17;100288.98;1621013;88;21073;-85
2021/08/11 05:01:19;;;;;;;7.05;3.40;;;;;;;15.94;90.33;100289.86;1668059;86;21524;-88
2021/08/11 05:03:46;;;;;;;7.25;4.22;;;;;;;15.99;90.38;100291.23;1648842;87;21028;-86
2021/08/11 05:06:12;;;;;;;4.55;3.05;;;;;;;16.03;90.12;100294.80;1667721;86;21005;-87
2021/08/11 05:08:41;;;;;;;6.42;3.45;;;;;;;16.06;90.09;100299.00;1651704;87;21037;-87
2021/08/11 05:11:08;;;;;;;10.32;3.72;;;;;;;16.08;90.05;100300.51;1621004;88;21175;-87
2021/08/11 05:13:34;;;;;;;4.10;3.40;;;;;;;16.09;89.81;100294.69;1667818;86;21061;-87
2021/08/11 05:16:01;;;;;;;5.08;3.50;;;;;;;16.10;89.61;100301.21;1648639;87;21080;-87
2021/08/11 05:18:28;;;;;;;5.97;3.35;;;;;;;16.11;89.62;100314.86;1667868;86;21026;-87
2021/08/11 05:20:54;;;;;;;5.47;3.85;;;;;;;16.13;89.63;100312.89;1651654;87;21025;-87
2021/08/11 05:23:20;;;;;;;5.35;3.58;;;;;;;16.16;89.63;100317.09;1621009;88;21024;-87
2021/08/11 05:25:46;;;;;;;4.62;3.55;;;;;;;16.21;89.99;100313.98;1667995;86;21001;-90
2021/08/11 05:28:12;;;;;;;7.90;4.25;;;;;;;16.25;90.13;100314.85;1648777;87;21008;-87
2021/08/11 05:30:41;;;;;;;6.62;4.00;;;;;;;16.31;89.88;100312.94;1621130;88;21860;-88
2021/08/11 05:33:07;;;;;;;5.92;3.70;;;;;;;16.36;90.10;100320.00;1667946;86;20966;-87
2021/08/11 05:35:33;;;;;;;5.75;4.15;;;;;;;16.41;89.83;100320.87;1648908;87;21389;-86
2021/08/11 05:40:27;;;;;;;5.17;3.40;;;;;;;16.52;89.47;100314.02;1865413;77;23443;-87
2021/08/11 05:42:53;;;;;;;8.13;3.67;;;;;;;16.52;89.51;100321.14;1834960;78;20993;-86
2021/08/11 05:45:19;;;;;;;4.92;3.40;;;;;;;16.55;89.34;100324.84;1835040;78;20964;-87
2021/08/11 05:47:45;;;;;;;5.05;3.50;;;;;;;16.59;89.42;100332.41;1835069;78;20945;-87
2021/08/11 05:50:12;;;;;;;6.70;3.92;;;;;;;16.60;89.21;100330.57;1835145;78;21028;-87
2021/08/11 05:52:38;;;;;;;7.55;4.05;;;;;;;16.63;89.14;100340.93;1834847;78;21509;-86
2021/08/11 05:55:05;;;;;;;9.70;4.53;;;;;;;16.64;89.13;100334.11;1835092;78;20987;-86
2021/08/11 05:57:38;;;;;;;11.68;4.17;;;;;;;16.68;89.14;100337.80;1834875;78;21008;-86
2021/08/11 06:00:06;;;;;;;9.30;7.40;;;;;;;16.69;89.11;100334.17;1835060;78;20980;-87
2021/08/11 06:02:40;;;;;;;7.78;4.50;;;;;;;16.70;89.12;100334.00;1834775;78;21000;-87
2021/08/11 06:05:10;;;;;;;4.60;3.98;;;;;;;16.69;88.89;100336.34;1833456;78;21024;-87
2021/08/11 06:07:36;;;;;;;6.90;4.30;;;;;;;16.70;88.82;100337.17;1834786;78;20969;-88
2021/08/11 06:10:04;;;;;;;9.38;4.25;;;;;;;16.68;88.61;100341.80;1834917;78;20964;-87
2021/08/11 06:12:30;;;;;;;4.97;3.40;;;;;;;16.67;88.68;100341.47;1834767;78;20956;-88
2021/08/11 06:14:56;;;;;;;6.83;3.87;;;;;;;16.65;88.75;100343.80;1834960;78;20992;-87
2021/08/11 06:17:22;;;;;;;6.75;4.30;;;;;;;16.64;88.55;100337.27;1834853;78;20968;-87
2021/08/11 06:19:48;;;;;;;8.78;3.85;;;;;;;16.64;88.81;100338.60;1834914;78;21043;-86
2021/08/11 06:22:16;;;;;;;5.40;3.37;;;;;;;16.66;89.22;100341.97;1834539;78;20993;-87
2021/08/11 06:24:42;;;;;;;5.28;4.00;;;;;;;16.70;89.34;100342.00;1834951;78;20941;-87
2021/08/11 06:27:08;;;;;;;14.55;4.12;;;;;;;16.74;89.38;100336.70;1834744;78;21004;-89
2021/08/11 06:29:34;;;;;;;6.45;4.20;;;;;;;16.76;89.22;100341.44;1835037;78;21078;-89
2021/08/11 06:32:02;;;;;;;7.65;4.80;;;;;;;16.78;89.28;100335.94;1834759;78;21466;-87
2021/08/11 06:34:28;;;;;;;9.90;5.37;;;;;;;16.82;89.53;100340.00;1834981;78;21492;-87
2021/08/11 06:36:56;;;;;;;6.12;3.90;;;;;;;16.85;89.41;100345.86;1834902;78;21000;-88
2021/08/11 06:39:24;;;;;;;5.35;4.22;;;;;;;16.90;89.34;100348.56;1820873;78;21068;-87
2021/08/11 06:41:50;;;;;;;6.25;4.08;;;;;;;16.94;89.26;100344.59;1803748;79;21021;-86
2021/08/11 06:44:16;;;;;;;6.62;3.47;;;;;;;16.98;89.37;100351.29;1804402;79;20926;-87
2021/08/11 06:46:41;;;;;;;5.92;4.10;;;;;;;17.03;89.33;100354.35;1804275;79;21009;-87
2021/08/11 06:49:07;;;;;;;6.03;3.05;;;;;;;17.09;89.28;100357.24;1804365;79;21004;-87
2021/08/11 06:51:33;;;;;;;6.35;4.45;;;;;;;17.15;89.37;100363.80;1803673;79;21033;-87
2021/08/11 06:53:59;;;;;;;5.22;3.72;;;;;;;17.22;89.47;100361.36;1803716;79;21009;-88
2021/08/11 06:56:25;;;;;;;6.78;3.50;;;;;;;17.27;88.81;100357.22;1803899;79;21095;-88
2021/08/11 06:58:51;;;;;;;6.03;4.08;;;;;;;17.33;88.55;100365.94;1803638;79;21475;-89
2021/08/11 07:01:17;;;;;;;6.37;4.05;;;;;;;17.40;88.52;100365.33;1803883;79;21004;-87
2021/08/11 07:03:43;;;;;;;7.20;4.28;;;;;;;17.44;88.52;100367.55;1803580;79;21020;-88
2021/08/11 07:06:09;;;;;;;4.85;3.62;;;;;;;17.51;88.67;100363.77;1803839;79;21494;-87
2021/08/11 07:08:34;;;;;;;8.25;4.42;;;;;;;17.57;88.74;100367.98;1803658;79;21004;-88
2021/08/11 07:11:00;;;;;;;5.33;3.90;;;;;;;17.65;88.15;100370.37;1803844;79;20992;-88
2021/08/11 07:13:26;;;;;;;6.55;3.30;;;;;;;17.69;87.80;100367.22;1803731;79;20954;-88
2021/08/11 07:15:53;;;;;;;5.62;3.60;;;;;;;17.74;87.63;100355.59;1803790;79;21001;-87
2021/08/11 07:18:20;;;;;;;5.70;3.85;;;;;;;17.79;87.75;100361.81;1803666;79;21485;-87
2021/08/11 07:20:46;;;;;;;8.55;3.95;;;;;;;17.85;87.67;100367.86;1803648;79;21017;-87
2021/08/11 07:23:13;;;;;;;5.85;3.98;;;;;;;17.89;86.96;100362.54;1803611;79;20981;-86
2021/08/11 07:25:39;;;;;;;7.37;3.92;;;;;;;17.94;86.69;100362.91;1803626;79;21001;-88
2021/08/11 07:28:06;;;;;;;4.95;3.35;;;;;;;17.98;86.89;100365.60;1803564;79;20949;-87
2021/08/11 07:30:32;;;;;;;9.93;4.33;;;;;;;18.04;86.65;100365.48;1804083;79;20973;-88
2021/08/11 07:32:58;;;;;;;7.53;3.80;;;;;;;18.10;86.27;100370.19;1803647;79;21023;-88
2021/08/11 07:35:24;;;;;;;9.48;4.10;;;;;;;18.15;86.03;100370.53;1803902;79;21125;-88
2021/08/11 07:37:55;;;;;;;6.83;3.58;;;;;;;18.20;85.43;100380.75;1803527;79;20960;-88
2021/08/11 07:40:25;;;;;;;5.33;4.33;;;;;;;18.24;85.65;100376.75;1819851;78;21017;-87
2021/08/11 07:42:51;;;;;;;10.30;3.77;;;;;;;18.30;85.75;100374.78;1824727;78;21509;-88
2021/08/11 07:45:19;;;;;;;7.67;3.85;;;;;;;18.37;85.48;100373.64;1825581;78;20977;-87
2021/08/11 07:47:47;;;;;;;5.83;3.67;;;;;;;18.44;85.25;100373.33;1825446;78;20993;-88
2021/08/11 07:50:16;;;;;;;5.85;3.83;;;;;;;18.51;84.72;100379.70;1825351;78;21055;-88
2021/08/11 07:52:43;;;;;;;4.58;3.10;;;;;;;18.59;84.60;100384.23;1825430;78;21463;-89
2021/08/11 07:55:09;;;;;;;5.30;3.22;;;;;;;18.65;84.10;100381.74;1825627;78;21008;-89
2021/08/11 07:57:35;;;;;;;5.42;3.10;;;;;;;18.69;83.35;100384.45;1825484;78;20961;-87
2021/08/11 08:00:01;;;;;;;4.80;3.25;;;;;;;18.75;83.52;100386.98;1793731;78;21466;-87
2021/08/11 08:02:27;;;;;;;6.33;3.20;;;;;;;18.84;83.36;100390.53;1825308;78;20983;-89
2021/08/11 08:04:53;;;;;;;5.15;3.35;;;;;;;18.90;82.95;100390.70;1825624;78;20938;-87
2021/08/11 08:07:19;;;;;;;5.50;3.37;;;;;;;18.98;82.29;100388.55;1825396;78;20977;-86
2021/08/11 08:09:45;;;;;;;7.28;3.30;;;;;;;19.06;82.45;100397.94;1825585;78;21518;-87
2021/08/11 08:12:11;;;;;;;4.30;3.00;;;;;;;19.12;82.54;100389.25;1825443;78;20928;-90
2021/08/11 08:14:39;;;;;;;5.25;3.05;;;;;;;19.19;82.55;100398.28;1820447;78;21023;-87
2021/08/11 08:17:05;;;;;;;4.40;3.10;;;;;;;19.28;81.33;100392.92;1823737;78;21016;-87
2021/08/11 08:19:32;;;;;;;3.65;3.12;;;;;;;19.33;81.77;100395.45;1825632;78;21431;-87
2021/08/11 08:21:58;;;;;;;4.75;3.05;;;;;;;19.41;81.84;100391.93;1825478;78;21297;-88
2021/08/11 08:24:24;;;;;;;6.42;2.85;;;;;;;19.50;81.40;100389.59;1825641;78;20958;-87
2021/08/11 08:26:50;;;;;;;6.15;2.80;;;;;;;19.59;81.45;100389.93;1825437;78;21017;-87
2021/08/11 08:29:16;;;;;;;6.12;3.52;;;;;;;19.62;80.29;100393.61;1825720;78;22167;-89
2021/08/11 08:31:42;;;;;;;6.80;3.80;;;;;;;19.69;81.17;100395.14;1767523;78;21025;-87
2021/08/11 08:34:08;;;;;;;3.92;3.00;;;;;;;19.80;80.04;100397.97;1825764;78;21032;-87
2021/08/11 08:36:34;;;;;;;4.47;3.40;;;;;;;19.87;79.17;100396.28;1825486;78;20977;-88
2021/08/11 08:39:00;;;;;;;4.25;2.87;;;;;;;19.93;79.88;100399.62;1824088;78;21474;-88
2021/08/11 08:41:27;;;;;;;5.25;2.90;;;;;;;20.00;79.34;100392.56;1806167;79;20972;-87
2021/08/11 08:43:53;;;;;;;3.60;2.70;;;;;;;20.05;78.57;100396.92;1812347;79;21427;-88
2021/08/11 08:46:23;;;;;;;6.15;3.37;;;;;;;20.10;79.11;100395.92;1806165;79;20980;-89
2021/08/11 08:48:49;;;;;;;3.58;2.33;;;;;;;20.19;78.33;100393.20;1806141;79;20965;-88
2021/08/11 08:51:15;;;;;;;6.08;2.90;;;;;;;20.28;77.93;100393.01;1786159;79;20985;-92
2021/08/11 08:53:44;;;;;;;3.37;2.25;;;;;;;20.38;76.53;100400.34;1806274;79;21035;-87
2021/08/11 08:56:10;;;;;;;4.97;2.92;;;;;;;20.41;76.13;100392.45;1806162;79;20961;-89
2021/08/11 08:58:42;;;;;;;9.90;4.62;;;;;;;20.44;75.68;100392.63;1805866;79;21032;-88
2021/08/11 09:01:29;;;;;;;;;;;;;;;;;;;;;
2021/08/11 09:03:38;;;;;;;4.33;3.27;;;;;;;20.53;76.65;100392.45;1801764;79;21091;-86
2021/08/11 09:06:04;;;;;;;3.83;2.50;;;;;;;20.63;75.29;100397.56;1786038;79;21019;-86
2021/08/11 09:08:30;;;;;;;3.47;2.33;;;;;;;20.70;75.72;100393.71;1806019;78;21051;-87
2021/08/11 09:10:56;;;;;;;5.00;3.25;;;;;;;20.75;75.13;100390.81;1806168;78;20992;-90
2021/08/11 09:13:24;;;;;;;4.20;2.45;;;;;;;20.85;74.88;100391.42;1806070;78;21009;-86
2021/08/11 09:15:58;;;;;;;4.20;2.85;;;;;;;20.93;73.84;100397.27;1806156;79;20977;-88
2021/08/11 09:18:28;;;;;;;3.90;2.58;;;;;;;21.01;74.21;100396.37;1804082;79;20980;-87
2021/08/11 09:21:09;;;;;;;3.92;2.60;;;;;;;21.10;74.53;100387.77;1806125;78;21503;-89
2021/08/11 09:23:40;;;;;;;5.50;2.58;;;;;;;21.20;74.08;100391.88;1805964;79;22214;-91
2021/08/11 09:26:13;;;;;;;5.55;2.40;;;;;;;21.25;72.07;100394.02;1806191;79;20980;-88
2021/08/11 09:28:43;;;;;;;3.70;2.22;;;;;;;21.28;72.35;100394.48;1805977;78;21481;-88
2021/08/11 09:31:30;;;;;;;5.28;2.15;;;;;;;21.33;71.62;100393.97;1806142;79;20969;-88
2021/08/11 09:34:03;;;;;;;3.25;2.22;;;;;;;21.36;72.13;100392.30;1805952;79;21005;-87
2021/08/11 09:36:52;;;;;;;3.15;2.50;;;;;;;21.47;72.21;100393.20;1806165;79;21539;-88
2021/08/11 09:39:16;;;;;;;3.70;2.80;;;;;;;21.55;71.93;100392.29;1806754;79;21032;-91
2021/08/11 09:42:04;;;;;;;4.33;2.72;;;;;;;21.66;71.95;100396.41;1825574;78;21003;-90
2021/08/11 09:44:32;;;;;;;3.00;2.67;;;;;;;21.77;71.46;100393.27;1793820;78;20985;-89
2021/08/11 09:47:14;;;;;;;3.65;2.77;;;;;;;21.83;69.83;100391.72;1825436;78;20989;-86
2021/08/11 09:49:40;;;;;;;3.12;2.15;;;;;;;21.89;70.56;100393.16;1825613;78;21008;-89
2021/08/11 09:52:06;;;;;;;4.33;2.30;;;;;;;21.98;70.38;100396.09;1825466;78;21048;-87
2021/08/11 09:54:33;;;;;;;4.67;2.60;;;;;;;22.07;69.72;100401.37;1825627;78;21498;-89
2021/08/11 09:56:59;;;;;;;5.92;2.55;;;;;;;22.15;71.07;100386.03;1825475;78;20957;-89
2021/08/11 09:59:26;;;;;;;2.85;2.10;;;;;;;22.23;69.26;100389.13;1825518;78;21032;-87
2021/08/11 10:01:52;;;;;;;3.52;2.12;;;;;;;22.30;68.90;100393.25;1825282;78;21024;-91
2021/08/11 10:04:20;;;;;;;3.45;2.47;;;;;;;22.33;68.50;100391.53;1825587;78;21012;-89
2021/08/11 10:06:47;;;;;;;3.00;2.30;;;;;;;22.31;68.88;100385.50;1825342;78;21009;-89
2021/08/11 10:09:20;;;;;;;3.72;1.98;;;;;;;22.37;68.33;100390.13;1825639;78;21454;-91
2021/08/11 10:11:56;;;;;;;6.90;2.90;;;;;;;22.39;67.49;100395.66;1825192;78;21570;-86
2021/08/11 10:14:27;;;;;;;44.15;6.70;;;;;;;22.41;66.68;100390.94;1825572;78;21067;-88
2021/08/11 10:16:56;;;;;;;3.90;2.02;;;;;;;22.42;68.37;100392.59;1825560;78;21043;-89
2021/08/11 10:19:26;;;;;;;9.83;3.80;;;;;;;22.46;67.31;100393.05;1793669;78;20984;-88
2021/08/11 10:22:08;;;;;;;16.52;4.00;;;;;;;22.49;67.55;100400.75;1824447;78;21043;-89
2021/08/11 10:24:36;;;;;;;;;;;;;;;22.54;67.29;100401.03;1776542;79;21014;-89
2021/08/11 10:27:08;;;;;;;10.85;3.20;;;;;;;22.50;66.39;100403.75;1825495;78;20098;-90
2021/08/11 10:29:36;;;;;;;;;;;;;;;22.39;66.33;100410.44;1828511;78;21429;-90
2021/08/11 10:32:03;;;;;;;10.03;3.30;;;;;;;22.26;66.26;100414.29;1825526;78;20110;-88
2021/08/11 10:34:31;;;;;;;6.35;2.98;;;;;;;22.21;66.23;100420.72;1825707;78;20996;-88
2021/08/11 10:36:59;;;;;;;5.67;2.90;;;;;;;22.20;66.29;100413.69;1825568;78;21024;-88
2021/08/11 10:39:25;;;;;;;6.72;2.77;;;;;;;22.27;66.38;100406.54;1825212;78;21028;-88
2021/08/11 10:41:51;;;;;;;4.17;2.30;;;;;;;22.35;66.29;100412.36;1791014;79;21491;-88
2021/08/11 10:44:23;;;;;;;3.90;2.33;;;;;;;22.38;65.42;100410.64;1786726;79;21279;-87
2021/08/11 10:46:59;;;;;;;3.80;3.37;;;;;;;22.39;65.39;100414.47;1786588;79;21530;-89
2021/08/11 10:49:29;;;;;;;4.25;2.50;;;;;;;22.46;65.94;100403.29;1786853;79;21029;-91
2021/08/11 10:52:09;;;;;;;5.00;3.05;;;;;;;22.61;65.99;100406.49;1786692;79;21030;-86
2021/08/11 10:54:53;;;;;;;2.98;2.30;;;;;;;22.73;65.86;100402.27;1785003;80;21029;-89
2021/08/11 10:57:40;;;;;;;5.22;2.98;;;;;;;22.91;65.33;100408.61;1777600;80;21018;-93
2021/08/11 11:00:13;;;;;;;3.52;2.60;;;;;;;23.01;65.00;100402.95;1786768;79;20998;-92
2021/08/11 11:02:48;;;;;;;4.08;2.42;;;;;;;23.04;63.84;100400.70;1786673;80;21020;-90
2021/08/11 11:05:28;;;;;;;6.00;2.98;;;;;;;23.04;63.81;100399.87;1786815;80;21527;-90
2021/08/11 11:08:15;;;;;;;4.12;2.33;;;;;;;23.07;64.50;100394.12;1786800;79;20998;-89
2021/08/11 11:10:46;;;;;;;3.30;2.47;;;;;;;23.08;63.91;100397.12;1786776;80;21001;-87
2021/08/11 11:13:31;;;;;;;3.17;2.40;;;;;;;23.15;62.87;100396.67;1786829;79;21017;-90
2021/08/11 11:15:59;;;;;;;4.50;2.33;;;;;;;23.12;62.50;100401.09;1786727;79;21563;-90
2021/08/11 11:18:25;;;;;;;5.17;3.00;;;;;;;23.16;64.42;100401.88;1786167;80;21010;-86
2021/08/11 11:21:02;;;;;;;3.08;2.15;;;;;;;23.32;63.68;100406.15;1786768;79;21499;-90
2021/08/11 11:23:38;;;;;;;3.87;2.30;;;;;;;23.40;62.67;100400.65;1786691;79;21041;-87
2021/08/11 11:26:10;;;;;;;3.75;2.85;;;;;;;23.48;62.73;100405.58;1786843;80;21468;-88
2021/08/11 11:28:54;;;;;;;;;;;;;;;23.52;61.51;100401.46;1768135;79;21522;-91
2021/08/11 11:31:51;;;;;;;3.50;2.47;;;;;;;23.38;61.55;100404.03;1786732;80;20106;-91
2021/08/11 11:34:33;;;;;;;4.53;2.42;;;;;;;23.41;62.38;100405.52;1786735;80;21001;-90
2021/08/11 11:37:05;;;;;;;3.55;2.83;;;;;;;23.58;62.89;100402.86;1786747;80;21088;-92